Sai Nv Wang — 9HA2856 — position and weather

sailwx.info

Track history (hours):
 
Tides and Currents Weather Stations Pressure Air Temp Water Temp Dewpoint Dewpoint Depression Visibility Wind Speed Wind Dir Waves Ship Positions

Sai Nv Wang

Last reported at 2017-Nov-07 02:53 UTC. Time now 2017-Nov-21 19:29 UTC.
Position N 36°01' E 014°48'.
Warning: this ship's position is 14 days out of date.

Length 157 m.

Type: Cargo ship. MMSI: 215589000.

Date/timePositionNaut miles runAvg speedWind from/ knotsBaromVisibWave heightAir tempDewpointWater temp
2017-Nov-07 02:53N 36°01' E 014°48'511.6
2017-Nov-07 02:25N 36°02' E 014°41'811.9
2017-Nov-07 01:45N 36°04' E 014°32'312.0
2017-Nov-07 01:30N 36°05' E 014°28'611.7
2017-Nov-07 01:00N 36°08' E 014°22'611.5
2017-Nov-07 00:30N 36°10' E 014°15'611.5
2017-Nov-07 00:00N 36°12' E 014°08'611.5
2017-Nov-06 23:30N 36°14' E 014°02'611.5
2017-Nov-06 23:00N 36°16' E 013°55'611.5
2017-Nov-06 22:30N 36°19' E 013°49'  
2017-Nov-02 16:43N 38°18' W 009°59'312.2
2017-Nov-02 16:30N 38°20' W 009°60'612.2
2017-Nov-02 16:00N 38°26' W 010°02'612.0
2017-Nov-02 15:30N 38°32' W 010°04'612.2
2017-Nov-02 15:00N 38°38' W 010°06'612.2
2017-Nov-02 14:30N 38°44' W 010°07'611.8
2017-Nov-02 14:00N 38°50' W 010°07'611.7
2017-Nov-02 13:30N 38°55' W 010°07'611.7
2017-Nov-02 13:00N 39°01' W 010°07'611.8
2017-Nov-02 12:30N 39°07' W 010°07'611.6
2017-Nov-02 12:00N 39°13' W 010°08'611.7
2017-Nov-02 11:29N 39°19' W 010°08'308 9.2
2017-Nov-01 01:52N 43°49' W 006°50'511.9
2017-Nov-01 01:27N 43°49' W 006°43'612.2
2017-Nov-01 00:57N 43°48' W 006°34'512.5
2017-Nov-01 00:30N 43°48' W 006°27'1212.6
2017-Oct-31 23:35N 43°47' W 006°11'2912.3
2017-Oct-31 21:12N 43°44' W 005°31'212.1
2017-Oct-31 21:00N 43°44' W 005°27'611.8
2017-Oct-31 20:30N 43°43' W 005°19'3512.1
2017-Oct-31 17:35N 43°40' W 004°30'412.5
2017-Oct-31 17:18N 43°39' W 004°26'412.4
2017-Oct-31 17:01N 43°39' W 004°21'612.5
2017-Oct-31 16:30N 43°39' W 004°12'612.4
2017-Oct-31 16:00N 43°38' W 004°03'612.5
2017-Oct-31 15:30N 43°37' W 003°55'612.7
2017-Oct-31 15:00N 43°37' W 003°46'612.5
2017-Oct-31 14:30N 43°36' W 003°37'612.4
2017-Oct-31 14:00N 43°34' W 003°29'612.4
2017-Oct-31 13:30N 43°32' W 003°21'612.5
2017-Oct-31 13:00N 43°28' W 003°14'612.4
2017-Oct-31 12:31N 43°25' W 003°07'4 8.8
2017-Oct-31 12:00N 43°22' W 003°03'1 1.0
2017-Oct-31 11:30N 43°21' W 003°03'0 0.0
2017-Oct-31 11:00N 43°21' W 003°03'0 0.0
2017-Oct-31 10:30N 43°21' W 003°03'0 0.0
2017-Oct-31 10:00N 43°21' W 003°03'0 0.0
2017-Oct-31 09:30N 43°21' W 003°03'0 0.0
2017-Oct-31 09:00N 43°21' W 003°03'0 0.0
2017-Oct-31 08:30N 43°21' W 003°03'0 0.0
2017-Oct-31 08:00N 43°21' W 003°03'0 0.0
2017-Oct-31 07:30N 43°21' W 003°03'0 0.0
2017-Oct-31 07:00N 43°21' W 003°03'0 0.0
2017-Oct-31 06:30N 43°21' W 003°03'0 0.0
2017-Oct-31 06:00N 43°21' W 003°03'0 0.0
2017-Oct-31 05:30N 43°21' W 003°03'0 0.0
2017-Oct-31 05:00N 43°21' W 003°03'0 0.0
2017-Oct-31 04:30N 43°21' W 003°03'0 0.0
2017-Oct-31 04:00N 43°21' W 003°03'0 0.0
2017-Oct-31 03:30N 43°21' W 003°03'0 0.0
2017-Oct-31 03:00N 43°21' W 003°03'0 0.0
2017-Oct-31 02:30N 43°21' W 003°03'0 0.0
2017-Oct-31 02:00N 43°21' W 003°03'0 0.0
2017-Oct-31 01:30N 43°21' W 003°03'0 0.0
2017-Oct-31 01:00N 43°21' W 003°03'0 0.0
2017-Oct-31 00:30N 43°21' W 003°03'0 0.0
2017-Oct-31 00:00N 43°21' W 003°03'0 0.0
2017-Oct-30 23:30N 43°21' W 003°03'0 0.0
2017-Oct-30 23:00N 43°21' W 003°03'0 0.0
2017-Oct-30 22:30N 43°21' W 003°03'0 0.0
2017-Oct-30 22:00N 43°21' W 003°03'0 0.0
2017-Oct-30 21:30N 43°21' W 003°03'0 0.0
2017-Oct-30 21:00N 43°21' W 003°03'0 0.0
2017-Oct-30 20:30N 43°21' W 003°03'0 0.0
2017-Oct-30 20:00N 43°21' W 003°03'0 0.0
2017-Oct-30 19:30N 43°21' W 003°03'0 0.0
2017-Oct-30 19:00N 43°21' W 003°03'0 0.0
2017-Oct-30 18:30N 43°21' W 003°03'0 0.0
2017-Oct-30 18:00N 43°21' W 003°03'0 0.0
2017-Oct-30 17:30N 43°21' W 003°03'0 0.0
2017-Oct-30 17:00N 43°21' W 003°03'0 0.0
2017-Oct-30 16:30N 43°21' W 003°03'0 0.0
2017-Oct-30 16:00N 43°21' W 003°03'0 0.0
2017-Oct-30 15:30N 43°21' W 003°03'0 0.0
2017-Oct-30 15:00N 43°21' W 003°03'0 0.0
2017-Oct-30 14:30N 43°21' W 003°03'0 0.0
2017-Oct-30 13:30N 43°21' W 003°03'0 0.0
2017-Oct-30 13:00N 43°21' W 003°03'0 0.0
2017-Oct-30 12:30N 43°21' W 003°03'0 0.0
2017-Oct-30 12:00N 43°21' W 003°03'0 0.0
2017-Oct-30 11:30N 43°21' W 003°03'0 0.0
2017-Oct-30 11:00N 43°21' W 003°03'0 0.0
2017-Oct-30 10:30N 43°21' W 003°03'0 0.0
2017-Oct-30 10:00N 43°21' W 003°03'0 0.0
2017-Oct-30 09:30N 43°21' W 003°03'0 0.0
2017-Oct-30 09:00N 43°21' W 003°03'0 0.0
2017-Oct-30 08:30N 43°21' W 003°03'0 0.0
2017-Oct-30 08:00N 43°21' W 003°03'0 0.0
2017-Oct-30 07:30N 43°21' W 003°03'0 0.0
2017-Oct-30 07:00N 43°21' W 003°03'0 0.0
2017-Oct-30 06:30N 43°21' W 003°03'0 0.0
2017-Oct-30 06:00N 43°21' W 003°03'0 0.0
2017-Oct-30 05:30N 43°21' W 003°03'0 0.0
2017-Oct-30 05:00N 43°21' W 003°03'0 0.0
2017-Oct-30 04:30N 43°21' W 003°03'0 0.0
2017-Oct-30 04:00N 43°21' W 003°03'0 0.0
2017-Oct-30 03:30N 43°21' W 003°03'0 0.0
2017-Oct-30 03:00N 43°21' W 003°03'0 0.0
2017-Oct-30 02:30N 43°21' W 003°03'0 0.0
2017-Oct-30 02:00N 43°21' W 003°03'0 0.0
2017-Oct-30 01:30N 43°21' W 003°03'0 0.0
2017-Oct-30 01:00N 43°21' W 003°03'0 0.0
2017-Oct-30 00:30N 43°21' W 003°03'0 0.0
2017-Oct-30 00:00N 43°21' W 003°03'0 0.0
2017-Oct-29 23:30N 43°21' W 003°03'0 0.0
2017-Oct-29 23:00N 43°21' W 003°03'0 0.0
2017-Oct-29 22:30N 43°21' W 003°03'0 0.0
2017-Oct-29 22:00N 43°21' W 003°03'0 0.0
2017-Oct-29 21:30N 43°21' W 003°03'0 0.0
2017-Oct-29 21:00N 43°21' W 003°03'0 0.0
2017-Oct-29 20:30N 43°21' W 003°03'0 0.0
2017-Oct-29 20:00N 43°21' W 003°03'0 0.0
2017-Oct-29 19:30N 43°21' W 003°03'0 0.0
2017-Oct-29 19:00N 43°21' W 003°03'0 0.0
2017-Oct-29 18:30N 43°21' W 003°03'0 0.0
2017-Oct-29 18:00N 43°21' W 003°03'0 0.0
2017-Oct-29 17:30N 43°21' W 003°03'0 0.0
2017-Oct-29 17:00N 43°21' W 003°03'0 0.0
2017-Oct-29 16:30N 43°21' W 003°03'0 0.0
2017-Oct-29 16:00N 43°21' W 003°03'0 0.0
2017-Oct-29 15:30N 43°21' W 003°03'0 0.0
2017-Oct-29 15:00N 43°21' W 003°03'0 0.0
2017-Oct-29 14:30N 43°21' W 003°03'0 0.0
2017-Oct-29 14:00N 43°21' W 003°03'0 0.0
2017-Oct-29 13:30N 43°21' W 003°03'0 0.0
2017-Oct-29 13:00N 43°21' W 003°03'0 0.0
2017-Oct-29 12:30N 43°21' W 003°03'0 0.0
2017-Oct-29 12:00N 43°21' W 003°03'0 0.0
2017-Oct-29 11:30N 43°21' W 003°03'0 0.0
2017-Oct-29 11:00N 43°21' W 003°03'0 0.0
2017-Oct-29 10:30N 43°21' W 003°03'0 0.0
2017-Oct-29 10:00N 43°21' W 003°03'0 0.0
2017-Oct-29 09:30N 43°21' W 003°03'0 0.0
2017-Oct-29 09:00N 43°21' W 003°03'0 0.0
2017-Oct-29 08:30N 43°21' W 003°03'0 0.0
2017-Oct-29 08:00N 43°21' W 003°03'0 0.0
2017-Oct-29 07:30N 43°21' W 003°03'0 0.0
2017-Oct-29 07:00N 43°21' W 003°03'0 0.0
2017-Oct-29 06:30N 43°21' W 003°03'0 0.0
2017-Oct-29 06:00N 43°21' W 003°03'0 0.0
2017-Oct-29 05:30N 43°21' W 003°03'0 0.0
2017-Oct-29 05:00N 43°21' W 003°03'0 0.0
2017-Oct-29 04:30N 43°21' W 003°03'0 0.0
2017-Oct-29 04:00N 43°21' W 003°03'0 0.0
2017-Oct-28 19:00N 43°21' W 003°03'0 0.0
2017-Oct-28 18:30N 43°21' W 003°03'0 0.0
2017-Oct-28 18:00N 43°21' W 003°03'0 0.0
2017-Oct-28 17:30N 43°21' W 003°03'0 0.0
2017-Oct-28 17:00N 43°21' W 003°03'0 0.0
2017-Oct-28 16:30N 43°21' W 003°03'0 0.0
2017-Oct-28 16:00N 43°21' W 003°03'0 0.0
2017-Oct-28 15:30N 43°21' W 003°03'0 0.0
2017-Oct-28 15:00N 43°21' W 003°03'0 0.0
2017-Oct-28 14:30N 43°21' W 003°03'0 0.0
2017-Oct-28 14:00N 43°21' W 003°03'0 0.0
2017-Oct-28 13:30N 43°21' W 003°03'0 0.0
2017-Oct-28 13:00N 43°21' W 003°03'0 0.0
2017-Oct-28 12:30N 43°21' W 003°03'0 0.0
2017-Oct-28 12:00N 43°21' W 003°03'0 0.0
2017-Oct-28 11:30N 43°21' W 003°03'0 0.0
2017-Oct-28 11:00N 43°21' W 003°03'0 0.0
2017-Oct-28 10:30N 43°21' W 003°03'0 0.0
2017-Oct-28 10:00N 43°21' W 003°03'0 0.0
2017-Oct-28 09:30N 43°21' W 003°03'0 0.0
2017-Oct-28 09:00N 43°21' W 003°03'0 0.0
2017-Oct-28 08:30N 43°21' W 003°03'0 0.0
2017-Oct-28 08:00N 43°21' W 003°03'0 0.0
2017-Oct-28 07:30N 43°21' W 003°03'0 0.0
2017-Oct-28 07:00N 43°21' W 003°03'0 0.0
2017-Oct-28 06:30N 43°21' W 003°03'0 0.0
2017-Oct-28 06:00N 43°21' W 003°03'0 0.0
2017-Oct-28 05:30N 43°21' W 003°03'0 0.1
2017-Oct-28 05:00N 43°21' W 003°03'0 1.0
2017-Oct-28 04:30N 43°22' W 003°03'3 5.7
2017-Oct-28 04:01N 43°24' W 003°06'4 8.2
2017-Oct-28 03:30N 43°27' W 003°10'510.0
2017-Oct-28 03:01N 43°29' W 003°16'  
Track history (hours):
 
Tides and Currents Weather Stations Pressure Air Temp Water Temp Dewpoint Dewpoint Depression Visibility Wind Speed Wind Dir Waves Ship Positions

Sai Nv Wang

Last reported at 2017-Nov-07 02:53 UTC. Time now 2017-Nov-21 19:29 UTC.
Position N 36°01' E 014°48'.
Warning: this ship's position is 14 days out of date.

Length 157 m.

Type: Cargo ship. MMSI: 215589000.

Date/timePositionNaut miles runAvg speedWind from/ knotsBaromVisibWave heightAir tempDewpointWater temp
2017-Nov-07 02:53N 36°01' E 014°48'511.6
2017-Nov-07 02:25N 36°02' E 014°41'811.9
2017-Nov-07 01:45N 36°04' E 014°32'312.0
2017-Nov-07 01:30N 36°05' E 014°28'611.7
2017-Nov-07 01:00N 36°08' E 014°22'611.5
2017-Nov-07 00:30N 36°10' E 014°15'611.5
2017-Nov-07 00:00N 36°12' E 014°08'611.5
2017-Nov-06 23:30N 36°14' E 014°02'611.5
2017-Nov-06 23:00N 36°16' E 013°55'611.5
2017-Nov-06 22:30N 36°19' E 013°49'  
2017-Nov-02 16:43N 38°18' W 009°59'312.2
2017-Nov-02 16:30N 38°20' W 009°60'612.2
2017-Nov-02 16:00N 38°26' W 010°02'612.0
2017-Nov-02 15:30N 38°32' W 010°04'612.2
2017-Nov-02 15:00N 38°38' W 010°06'612.2
2017-Nov-02 14:30N 38°44' W 010°07'611.8
2017-Nov-02 14:00N 38°50' W 010°07'611.7
2017-Nov-02 13:30N 38°55' W 010°07'611.7
2017-Nov-02 13:00N 39°01' W 010°07'611.8
2017-Nov-02 12:30N 39°07' W 010°07'611.6
2017-Nov-02 12:00N 39°13' W 010°08'611.7
2017-Nov-02 11:29N 39°19' W 010°08'308 9.2
2017-Nov-01 01:52N 43°49' W 006°50'511.9
2017-Nov-01 01:27N 43°49' W 006°43'612.2
2017-Nov-01 00:57N 43°48' W 006°34'512.5
2017-Nov-01 00:30N 43°48' W 006°27'1212.6
2017-Oct-31 23:35N 43°47' W 006°11'2912.3
2017-Oct-31 21:12N 43°44' W 005°31'212.1
2017-Oct-31 21:00N 43°44' W 005°27'611.8
2017-Oct-31 20:30N 43°43' W 005°19'3512.1
2017-Oct-31 17:35N 43°40' W 004°30'412.5
2017-Oct-31 17:18N 43°39' W 004°26'412.4
2017-Oct-31 17:01N 43°39' W 004°21'612.5
2017-Oct-31 16:30N 43°39' W 004°12'612.4
2017-Oct-31 16:00N 43°38' W 004°03'612.5
2017-Oct-31 15:30N 43°37' W 003°55'612.7
2017-Oct-31 15:00N 43°37' W 003°46'612.5
2017-Oct-31 14:30N 43°36' W 003°37'612.4
2017-Oct-31 14:00N 43°34' W 003°29'612.4
2017-Oct-31 13:30N 43°32' W 003°21'612.5
2017-Oct-31 13:00N 43°28' W 003°14'612.4
2017-Oct-31 12:31N 43°25' W 003°07'4 8.8
2017-Oct-31 12:00N 43°22' W 003°03'1 1.0
2017-Oct-31 11:30N 43°21' W 003°03'0 0.0
2017-Oct-31 11:00N 43°21' W 003°03'0 0.0
2017-Oct-31 10:30N 43°21' W 003°03'0 0.0
2017-Oct-31 10:00N 43°21' W 003°03'0 0.0
2017-Oct-31 09:30N 43°21' W 003°03'0 0.0
2017-Oct-31 09:00N 43°21' W 003°03'0 0.0
2017-Oct-31 08:30N 43°21' W 003°03'0 0.0
2017-Oct-31 08:00N 43°21' W 003°03'0 0.0
2017-Oct-31 07:30N 43°21' W 003°03'0 0.0
2017-Oct-31 07:00N 43°21' W 003°03'0 0.0
2017-Oct-31 06:30N 43°21' W 003°03'0 0.0
2017-Oct-31 06:00N 43°21' W 003°03'0 0.0
2017-Oct-31 05:30N 43°21' W 003°03'0 0.0
2017-Oct-31 05:00N 43°21' W 003°03'0 0.0
2017-Oct-31 04:30N 43°21' W 003°03'0 0.0
2017-Oct-31 04:00N 43°21' W 003°03'0 0.0
2017-Oct-31 03:30N 43°21' W 003°03'0 0.0
2017-Oct-31 03:00N 43°21' W 003°03'0 0.0
2017-Oct-31 02:30N 43°21' W 003°03'0 0.0
2017-Oct-31 02:00N 43°21' W 003°03'0 0.0
2017-Oct-31 01:30N 43°21' W 003°03'0 0.0
2017-Oct-31 01:00N 43°21' W 003°03'0 0.0
2017-Oct-31 00:30N 43°21' W 003°03'0 0.0
2017-Oct-31 00:00N 43°21' W 003°03'0 0.0
2017-Oct-30 23:30N 43°21' W 003°03'0 0.0
2017-Oct-30 23:00N 43°21' W 003°03'0 0.0
2017-Oct-30 22:30N 43°21' W 003°03'0 0.0
2017-Oct-30 22:00N 43°21' W 003°03'0 0.0
2017-Oct-30 21:30N 43°21' W 003°03'0 0.0
2017-Oct-30 21:00N 43°21' W 003°03'0 0.0
2017-Oct-30 20:30N 43°21' W 003°03'0 0.0
2017-Oct-30 20:00N 43°21' W 003°03'0 0.0
2017-Oct-30 19:30N 43°21' W 003°03'0 0.0
2017-Oct-30 19:00N 43°21' W 003°03'0 0.0
2017-Oct-30 18:30N 43°21' W 003°03'0 0.0
2017-Oct-30 18:00N 43°21' W 003°03'0 0.0
2017-Oct-30 17:30N 43°21' W 003°03'0 0.0
2017-Oct-30 17:00N 43°21' W 003°03'0 0.0
2017-Oct-30 16:30N 43°21' W 003°03'0 0.0
2017-Oct-30 16:00N 43°21' W 003°03'0 0.0
2017-Oct-30 15:30N 43°21' W 003°03'0 0.0
2017-Oct-30 15:00N 43°21' W 003°03'0 0.0
2017-Oct-30 14:30N 43°21' W 003°03'0 0.0
2017-Oct-30 13:30N 43°21' W 003°03'0 0.0
2017-Oct-30 13:00N 43°21' W 003°03'0 0.0
2017-Oct-30 12:30N 43°21' W 003°03'0 0.0
2017-Oct-30 12:00N 43°21' W 003°03'0 0.0
2017-Oct-30 11:30N 43°21' W 003°03'0 0.0
2017-Oct-30 11:00N 43°21' W 003°03'0 0.0
2017-Oct-30 10:30N 43°21' W 003°03'0 0.0
2017-Oct-30 10:00N 43°21' W 003°03'0 0.0
2017-Oct-30 09:30N 43°21' W 003°03'0 0.0
2017-Oct-30 09:00N 43°21' W 003°03'0 0.0
2017-Oct-30 08:30N 43°21' W 003°03'0 0.0
2017-Oct-30 08:00N 43°21' W 003°03'0 0.0
2017-Oct-30 07:30N 43°21' W 003°03'0 0.0
2017-Oct-30 07:00N 43°21' W 003°03'0 0.0
2017-Oct-30 06:30N 43°21' W 003°03'0 0.0
2017-Oct-30 06:00N 43°21' W 003°03'0 0.0
2017-Oct-30 05:30N 43°21' W 003°03'0 0.0
2017-Oct-30 05:00N 43°21' W 003°03'0 0.0
2017-Oct-30 04:30N 43°21' W 003°03'0 0.0
2017-Oct-30 04:00N 43°21' W 003°03'0 0.0
2017-Oct-30 03:30N 43°21' W 003°03'0 0.0
2017-Oct-30 03:00N 43°21' W 003°03'0 0.0
2017-Oct-30 02:30N 43°21' W 003°03'0 0.0
2017-Oct-30 02:00N 43°21' W 003°03'0 0.0
2017-Oct-30 01:30N 43°21' W 003°03'0 0.0
2017-Oct-30 01:00N 43°21' W 003°03'0 0.0
2017-Oct-30 00:30N 43°21' W 003°03'0 0.0
2017-Oct-30 00:00N 43°21' W 003°03'0 0.0
2017-Oct-29 23:30N 43°21' W 003°03'0 0.0
2017-Oct-29 23:00N 43°21' W 003°03'0 0.0
2017-Oct-29 22:30N 43°21' W 003°03'0 0.0
2017-Oct-29 22:00N 43°21' W 003°03'0 0.0
2017-Oct-29 21:30N 43°21' W 003°03'0 0.0
2017-Oct-29 21:00N 43°21' W 003°03'0 0.0
2017-Oct-29 20:30N 43°21' W 003°03'0 0.0
2017-Oct-29 20:00N 43°21' W 003°03'0 0.0
2017-Oct-29 19:30N 43°21' W 003°03'0 0.0
2017-Oct-29 19:00N 43°21' W 003°03'0 0.0
2017-Oct-29 18:30N 43°21' W 003°03'0 0.0
2017-Oct-29 18:00N 43°21' W 003°03'0 0.0
2017-Oct-29 17:30N 43°21' W 003°03'0 0.0
2017-Oct-29 17:00N 43°21' W 003°03'0 0.0
2017-Oct-29 16:30N 43°21' W 003°03'0 0.0
2017-Oct-29 16:00N 43°21' W 003°03'0 0.0
2017-Oct-29 15:30N 43°21' W 003°03'0 0.0
2017-Oct-29 15:00N 43°21' W 003°03'0 0.0
2017-Oct-29 14:30N 43°21' W 003°03'0 0.0
2017-Oct-29 14:00N 43°21' W 003°03'0 0.0
2017-Oct-29 13:30N 43°21' W 003°03'0 0.0
2017-Oct-29 13:00N 43°21' W 003°03'0 0.0
2017-Oct-29 12:30N 43°21' W 003°03'0 0.0
2017-Oct-29 12:00N 43°21' W 003°03'0 0.0
2017-Oct-29 11:30N 43°21' W 003°03'0 0.0
2017-Oct-29 11:00N 43°21' W 003°03'0 0.0
2017-Oct-29 10:30N 43°21' W 003°03'0 0.0
2017-Oct-29 10:00N 43°21' W 003°03'0 0.0
2017-Oct-29 09:30N 43°21' W 003°03'0 0.0
2017-Oct-29 09:00N 43°21' W 003°03'0 0.0
2017-Oct-29 08:30N 43°21' W 003°03'0 0.0
2017-Oct-29 08:00N 43°21' W 003°03'0 0.0
2017-Oct-29 07:30N 43°21' W 003°03'0 0.0
2017-Oct-29 07:00N 43°21' W 003°03'0 0.0
2017-Oct-29 06:30N 43°21' W 003°03'0 0.0
2017-Oct-29 06:00N 43°21' W 003°03'0 0.0
2017-Oct-29 05:30N 43°21' W 003°03'0 0.0
2017-Oct-29 05:00N 43°21' W 003°03'0 0.0
2017-Oct-29 04:30N 43°21' W 003°03'0 0.0
2017-Oct-29 04:00N 43°21' W 003°03'0 0.0
2017-Oct-28 19:00N 43°21' W 003°03'0 0.0
2017-Oct-28 18:30N 43°21' W 003°03'0 0.0
2017-Oct-28 18:00N 43°21' W 003°03'0 0.0
2017-Oct-28 17:30N 43°21' W 003°03'0 0.0
2017-Oct-28 17:00N 43°21' W 003°03'0 0.0
2017-Oct-28 16:30N 43°21' W 003°03'0 0.0
2017-Oct-28 16:00N 43°21' W 003°03'0 0.0
2017-Oct-28 15:30N 43°21' W 003°03'0 0.0
2017-Oct-28 15:00N 43°21' W 003°03'0 0.0
2017-Oct-28 14:30N 43°21' W 003°03'0 0.0
2017-Oct-28 14:00N 43°21' W 003°03'0 0.0
2017-Oct-28 13:30N 43°21' W 003°03'0 0.0
2017-Oct-28 13:00N 43°21' W 003°03'0 0.0
2017-Oct-28 12:30N 43°21' W 003°03'0 0.0
2017-Oct-28 12:00N 43°21' W 003°03'0 0.0
2017-Oct-28 11:30N 43°21' W 003°03'0 0.0
2017-Oct-28 11:00N 43°21' W 003°03'0 0.0
2017-Oct-28 10:30N 43°21' W 003°03'0 0.0
2017-Oct-28 10:00N 43°21' W 003°03'0 0.0
2017-Oct-28 09:30N 43°21' W 003°03'0 0.0
2017-Oct-28 09:00N 43°21' W 003°03'0 0.0
2017-Oct-28 08:30N 43°21' W 003°03'0 0.0
2017-Oct-28 08:00N 43°21' W 003°03'0 0.0
2017-Oct-28 07:30N 43°21' W 003°03'0 0.0
2017-Oct-28 07:00N 43°21' W 003°03'0 0.0
2017-Oct-28 06:30N 43°21' W 003°03'0 0.0
2017-Oct-28 06:00N 43°21' W 003°03'0 0.0
2017-Oct-28 05:30N 43°21' W 003°03'0 0.1
2017-Oct-28 05:00N 43°21' W 003°03'0 1.0
2017-Oct-28 04:30N 43°22' W 003°03'3 5.7
2017-Oct-28 04:01N 43°24' W 003°06'4 8.2
2017-Oct-28 03:30N 43°27' W 003°10'510.0
2017-Oct-28 03:01N 43°29' W 003°16'  

Dump ship's entire track history